Time;durP1;ratioP1;P1;durP2;ratioP2;P2;SDS_P1;SDS_P2;PMS_P1;PMS_P2;Temp;Humidity;BMP_temperature;BMP_pressure;BME280_temperature;BME280_humidity;BME280_pressure;Samples;Min_cycle;Max_cycle;Signal;HPM_P1;HPM_P2
2023/03/02 00:01:02;;;;;;;;;;;14.70;59.50;;;;;;3910444;30;20068;-70
2023/03/02 00:03:43;;;;;;;10.40;9.48;;;14.70;59.30;;;;;;3913068;30;19933;-70
2023/03/02 00:06:24;;;;;;;9.73;8.73;;;14.70;58.70;;;;;;3912892;30;20077;-70
2023/03/02 00:09:05;;;;;;;9.50;8.70;;;14.70;59.00;;;;;;3925947;30;20071;-70
2023/03/02 00:11:48;;;;;;;9.50;8.57;;;14.70;59.80;;;;;;3916281;30;20589;-70
2023/03/02 00:14:29;;;;;;;8.93;8.02;;;14.70;60.30;;;;;;3920431;30;20059;-70
2023/03/02 00:17:10;;;;;;;9.13;8.33;;;14.80;60.00;;;;;;3923902;30;20063;-70
2023/03/02 00:19:51;;;;;;;9.27;8.57;;;14.90;59.60;;;;;;3927318;30;20783;-70
2023/03/02 00:22:32;;;;;;;9.80;8.93;;;14.90;58.50;;;;;;3927516;30;20082;-70
2023/03/02 00:25:15;;;;;;;9.52;8.63;;;14.90;58.70;;;;;;3927454;30;20127;-70
2023/03/02 00:27:58;;;;;;;9.88;8.90;;;15.00;58.90;;;;;;3912759;30;20059;-70
2023/03/02 00:30:40;;;;;;;9.15;8.18;;;15.00;60.30;;;;;;3912707;30;20129;-70
2023/03/02 00:33:20;;;;;;;9.05;8.35;;;15.10;59.50;;;;;;3912929;30;20067;-70
2023/03/02 00:36:02;;;;;;;8.40;7.60;;;15.10;58.60;;;;;;3916869;30;20511;-70
2023/03/02 00:38:43;;;;;;;10.15;9.25;;;15.10;58.80;;;;;;3927127;30;20086;-69
2023/03/02 00:41:24;;;;;;;9.02;8.23;;;15.20;59.10;;;;;;3916201;30;20149;-70
2023/03/02 00:44:07;;;;;;;10.00;9.10;;;15.20;58.10;;;;;;3927318;30;20139;-70
2023/03/02 00:46:48;;;;;;;10.07;9.18;;;15.20;58.30;;;;;;3915816;30;20425;-70
2023/03/02 00:49:29;;;;;;;9.52;8.73;;;15.20;58.20;;;;;;3925415;30;20063;-70
2023/03/02 00:52:10;;;;;;;10.75;9.68;;;15.20;58.50;;;;;;3926758;30;20109;-70
2023/03/02 00:54:51;;;;;;;10.10;9.23;;;15.20;58.10;;;;;;3926720;30;20059;-70
2023/03/02 00:57:31;;;;;;;9.50;8.60;;;15.10;58.80;;;;;;3912309;30;20064;-70
2023/03/02 01:00:15;;;;;;;;;;;15.20;59.20;;;;;;3901822;30;20059;-70
2023/03/02 01:02:59;;;;;;;10.13;8.73;;;15.20;59.10;;;;;;3912684;30;19943;-70
2023/03/02 01:05:40;;;;;;;11.45;10.40;;;15.20;59.20;;;;;;3921399;30;20062;-70
2023/03/02 01:08:21;;;;;;;11.07;10.07;;;15.20;58.90;;;;;;3914113;30;20067;-70
2023/03/02 01:11:03;;;;;;;;;;;15.30;57.70;;;;;;3901736;30;20528;-70
2023/03/02 01:13:44;;;;;;;10.32;9.43;;;15.40;58.60;;;;;;3912324;30;19933;-70
2023/03/02 01:16:26;;;;;;;11.27;10.18;;;15.50;58.60;;;;;;3922923;30;20164;-69
2023/03/02 01:19:08;;;;;;;11.82;10.63;;;15.50;58.70;;;;;;3926605;30;20193;-69
2023/03/02 01:21:49;;;;;;;11.27;10.35;;;15.60;57.80;;;;;;3926075;30;20229;-69
2023/03/02 01:24:31;;;;;;;10.55;9.50;;;15.70;58.10;;;;;;3919994;30;20055;-69
2023/03/02 01:27:12;;;;;;;11.63;10.38;;;15.70;58.00;;;;;;3926125;30;20063;-69
2023/03/02 01:29:53;;;;;;;11.73;10.63;;;15.70;58.50;;;;;;3901568;30;20060;-69
2023/03/02 01:32:35;;;;;;;11.52;10.35;;;15.70;58.20;;;;;;3908744;30;20059;-69
2023/03/02 01:35:17;;;;;;;11.27;10.18;;;15.80;57.80;;;;;;3907944;30;20055;-69
2023/03/02 01:37:57;;;;;;;11.60;10.60;;;15.80;57.70;;;;;;3915709;30;20074;-69
2023/03/02 01:40:38;;;;;;;11.95;10.85;;;15.80;58.10;;;;;;3904092;30;20068;-69
2023/03/02 01:43:19;;;;;;;12.68;11.52;;;15.70;58.50;;;;;;3914935;30;20198;-69
2023/03/02 01:46:02;;;;;;;10.90;9.90;;;15.70;58.60;;;;;;3913182;30;20063;-69
2023/03/02 01:49:10;;;;;;;11.45;10.35;;;15.70;58.30;;;;;;3929196;30;20059;-69
2023/03/02 01:52:17;;;;;;;11.50;10.43;;;15.70;57.70;;;;;;3929289;30;20193;-69
2023/03/02 01:55:00;;;;;;;11.50;10.40;;;15.80;58.00;;;;;;3908382;30;20058;-70
2023/03/02 01:57:46;;;;;;;12.38;10.70;;;15.70;58.00;;;;;;3929182;30;20194;-69
2023/03/02 02:00:32;;;;;;;12.15;11.00;;;15.70;58.20;;;;;;3929330;30;20099;-69
2023/03/02 02:03:19;;;;;;;11.65;10.60;;;15.70;57.90;;;;;;3916498;30;20070;-69
2023/03/02 02:06:10;;;;;;;12.73;11.43;;;15.70;58.00;;;;;;3917874;30;20055;-70
2023/03/02 02:08:52;;;;;;;12.80;11.60;;;15.70;57.70;;;;;;3924851;30;20737;-69
2023/03/02 02:11:33;;;;;;;12.45;11.25;;;15.70;57.40;;;;;;3911287;30;20512;-69
2023/03/02 02:14:14;;;;;;;13.52;12.23;;;15.60;57.30;;;;;;3914596;30;20060;-69
2023/03/02 02:16:54;;;;;;;13.60;12.32;;;15.60;57.40;;;;;;3914085;30;20063;-70
2023/03/02 02:19:50;;;;;;;14.23;12.85;;;15.50;57.10;;;;;;3914339;30;20059;-69
2023/03/02 02:22:46;;;;;;;14.68;12.98;;;15.30;57.40;;;;;;3903282;30;20074;-69
2023/03/02 02:25:43;;;;;;;14.20;12.85;;;15.30;57.30;;;;;;3914698;30;20072;-69
2023/03/02 02:28:30;;;;;;;14.23;12.25;;;15.20;58.10;;;;;;3903142;30;20058;-69
2023/03/02 02:31:16;;;;;;;15.30;13.65;;;15.20;58.80;;;;;;3908458;30;20060;-69
2023/03/02 02:34:03;;;;;;;15.48;13.88;;;15.20;59.10;;;;;;3917674;30;20074;-69
2023/03/02 02:36:47;;;;;;;15.15;13.55;;;15.20;59.20;;;;;;3917803;30;20069;-69
2023/03/02 02:39:33;;;;;;;16.15;14.43;;;15.20;59.10;;;;;;3917322;30;20075;-69
2023/03/02 02:42:18;;;;;;;17.13;14.93;;;15.20;59.40;;;;;;3916601;30;20512;-69
2023/03/02 02:45:03;;;;;;;16.50;14.68;;;15.20;59.80;;;;;;3900220;30;20067;-69
2023/03/02 02:47:44;;;;;;;17.60;14.60;;;15.20;59.10;;;;;;3914010;30;20528;-69
2023/03/02 02:50:28;;;;;;;15.18;13.50;;;15.30;60.10;;;;;;3903230;30;20079;-69
2023/03/02 02:53:13;;;;;;;17.58;14.15;;;15.30;59.20;;;;;;3900658;30;20413;-69
2023/03/02 02:55:56;;;;;;;16.85;14.60;;;15.40;59.00;;;;;;3914203;30;20118;-69
2023/03/02 02:58:41;;;;;;;16.98;13.98;;;15.40;58.70;;;;;;3907693;30;20067;-69
2023/03/02 03:01:25;;;;;;;18.55;15.30;;;15.40;59.30;;;;;;3910251;30;20389;-69
2023/03/02 03:04:07;;;;;;;17.48;14.35;;;15.30;59.00;;;;;;3916461;30;20404;-69
2023/03/02 03:06:54;;;;;;;20.83;16.85;;;15.30;59.40;;;;;;3928249;30;20129;-69
2023/03/02 03:09:35;;;;;;;32.05;17.63;;;15.30;59.60;;;;;;3912306;30;20106;-69
2023/03/02 03:12:19;;;;;;;32.00;18.17;;;15.40;58.30;;;;;;3906657;30;20062;-70
2023/03/02 03:15:01;;;;;;;26.08;18.45;;;15.50;57.20;;;;;;3928152;30;20309;-69
2023/03/02 03:17:54;;;;;;;28.13;18.10;;;15.60;57.60;;;;;;3917051;30;20876;-69
2023/03/02 03:20:36;;;;;;;24.42;18.75;;;15.60;58.00;;;;;;3902466;30;20064;-69
2023/03/02 03:23:16;;;;;;;26.87;18.57;;;15.60;58.40;;;;;;3913506;30;20059;-69
2023/03/02 03:25:57;;;;;;;27.80;19.60;;;15.70;58.50;;;;;;3913540;30;20798;-69
2023/03/02 03:28:39;;;;;;;28.55;19.73;;;15.80;58.50;;;;;;3902508;30;20328;-69
2023/03/02 03:31:19;;;;;;;36.03;20.88;;;15.80;59.40;;;;;;3902610;30;20146;-69
2023/03/02 03:34:02;;;;;;;29.08;20.77;;;15.90;58.60;;;;;;3903084;30;20405;-69
2023/03/02 03:36:47;;;;;;;45.03;22.13;;;15.90;58.40;;;;;;3905531;30;20058;-69
2023/03/02 03:39:28;;;;;;;31.27;21.13;;;16.00;58.20;;;;;;3928003;30;20063;-69
2023/03/02 03:42:10;;;;;;;30.52;20.92;;;15.90;58.20;;;;;;3917834;30;20055;-70
2023/03/02 03:44:51;;;;;;;;;;;15.90;58.30;;;;;;3910682;30;20515;-69
2023/03/02 03:47:32;;;;;;;36.25;21.50;;;16.00;58.20;;;;;;3904146;30;19937;-69
2023/03/02 03:50:15;;;;;;;45.15;21.27;;;15.90;58.10;;;;;;3892345;30;20102;-69
2023/03/02 03:52:57;;;;;;;46.38;22.90;;;15.90;57.40;;;;;;3898722;30;20060;-69
2023/03/02 03:55:41;;;;;;;61.38;20.85;;;15.90;58.10;;;;;;3902366;30;20064;-68
2023/03/02 03:58:22;;;;;;;;;;;15.80;56.80;;;;;;3915909;30;20109;-68
2023/03/02 04:01:03;;;;;;;61.80;21.00;;;15.80;57.20;;;;;;3915380;30;19933;-68
2023/03/02 04:03:44;;;;;;;39.78;21.83;;;15.60;56.80;;;;;;3911549;30;20472;-68
2023/03/02 04:06:27;;;;;;;55.38;20.60;;;15.50;57.70;;;;;;3927297;30;20928;-68
2023/03/02 04:09:08;;;;;;;50.85;22.80;;;15.50;58.00;;;;;;3916741;30;20496;-68
2023/03/02 04:11:50;;;;;;;53.72;23.75;;;15.60;58.30;;;;;;3916415;30;20087;-69
2023/03/02 04:14:32;;;;;;;70.50;24.10;;;15.70;58.40;;;;;;3916584;30;20522;-68
2023/03/02 04:17:13;;;;;;;;;;;15.70;58.40;;;;;;3913335;30;20528;-69
2023/03/02 04:19:57;;;;;;;48.80;20.38;;;15.70;58.50;;;;;;3902082;30;20008;-70
2023/03/02 04:22:39;;;;;;;78.05;23.65;;;15.70;58.60;;;;;;3901788;30;20064;-70
2023/03/02 04:25:23;;;;;;;45.45;24.52;;;15.70;58.50;;;;;;3901770;30;20052;-70
2023/03/02 04:28:07;;;;;;;45.30;24.23;;;15.70;58.50;;;;;;3899715;30;20064;-70
2023/03/02 04:30:52;;;;;;;51.22;23.73;;;15.70;58.70;;;;;;3901960;30;20060;-70
2023/03/02 04:33:37;;;;;;;41.50;23.25;;;15.60;59.30;;;;;;3907824;30;20063;-68
2023/03/02 04:36:19;;;;;;;43.25;25.63;;;15.60;58.70;;;;;;3925167;30;20055;-69
2023/03/02 04:39:04;;;;;;;41.58;26.92;;;15.60;59.00;;;;;;3901873;30;20059;-69
2023/03/02 04:41:45;;;;;;;40.38;23.83;;;15.60;58.40;;;;;;3912648;30;20064;-69
2023/03/02 04:44:26;;;;;;;44.60;22.45;;;15.50;57.90;;;;;;3914082;30;20052;-69
2023/03/02 04:47:07;;;;;;;40.58;23.20;;;15.40;57.60;;;;;;3927137;30;20137;-69
2023/03/02 04:49:49;;;;;;;44.92;21.13;;;15.30;57.10;;;;;;3925658;30;20137;-69
2023/03/02 04:52:30;;;;;;;56.90;21.30;;;15.20;58.10;;;;;;3927254;30;20063;-68
2023/03/02 04:55:18;;;;;;;60.90;20.02;;;15.30;58.80;;;;;;3926988;30;20071;-68
2023/03/02 04:57:59;;;;;;;80.60;20.25;;;15.30;58.70;;;;;;3915349;30;20059;-69
2023/03/02 05:00:40;;;;;;;36.83;20.05;;;15.40;58.00;;;;;;3927152;30;20085;-69
2023/03/02 05:03:21;;;;;;;44.33;20.53;;;15.40;58.50;;;;;;3927149;30;20067;-69
2023/03/02 05:06:03;;;;;;;44.83;19.17;;;15.50;58.50;;;;;;3913697;30;20360;-69
2023/03/02 05:08:45;;;;;;;42.20;18.85;;;15.50;58.50;;;;;;3915811;30;20409;-69
2023/03/02 05:11:27;;;;;;;;;;;15.60;58.70;;;;;;3915796;30;20063;-69
2023/03/02 05:14:10;;;;;;;38.85;17.90;;;15.70;58.50;;;;;;3913976;30;19937;-69
2023/03/02 05:16:51;;;;;;;60.78;16.80;;;15.70;57.60;;;;;;3930114;30;20059;-70
2023/03/02 05:19:32;;;;;;;50.42;16.10;;;15.80;57.10;;;;;;3915434;30;20062;-70
2023/03/02 05:22:13;;;;;;;47.67;16.60;;;15.70;56.20;;;;;;3915280;30;20070;-70
2023/03/02 05:24:54;;;;;;;42.30;15.82;;;15.80;56.40;;;;;;3923229;30;20067;-70
2023/03/02 05:27:36;;;;;;;23.10;15.50;;;15.80;56.90;;;;;;3929600;30;20443;-70
2023/03/02 05:30:18;;;;;;;24.27;16.80;;;15.80;57.50;;;;;;3929747;30;20370;-69
2023/03/02 05:32:59;;;;;;;34.30;18.48;;;15.70;58.00;;;;;;3929675;30;20055;-70
2023/03/02 05:35:41;;;;;;;51.03;21.55;;;15.70;58.30;;;;;;3923557;30;20055;-69
2023/03/02 05:38:22;;;;;;;53.42;24.15;;;15.80;58.50;;;;;;3915436;30;20497;-69
2023/03/02 05:41:03;;;;;;;70.97;25.35;;;15.80;58.50;;;;;;3914997;30;20063;-69
2023/03/02 05:43:45;;;;;;;54.83;24.75;;;15.90;58.50;;;;;;3915082;30;20064;-69
2023/03/02 05:46:26;;;;;;;79.70;24.85;;;15.90;58.40;;;;;;3914893;30;20063;-69
2023/03/02 05:49:07;;;;;;;60.90;24.65;;;15.90;58.00;;;;;;3914869;30;20132;-69
2023/03/02 05:51:48;;;;;;;55.00;22.47;;;15.90;58.20;;;;;;3914840;30;20090;-69
2023/03/02 05:54:29;;;;;;;51.78;21.65;;;15.90;58.20;;;;;;3921477;30;20293;-69
2023/03/02 05:57:10;;;;;;;45.55;19.20;;;15.90;58.50;;;;;;3914796;30;20090;-69
2023/03/02 05:59:52;;;;;;;61.87;19.53;;;15.90;58.10;;;;;;3914914;30;20067;-69
2023/03/02 06:02:33;;;;;;;60.13;16.90;;;15.80;57.90;;;;;;3914925;30;20117;-69
2023/03/02 06:05:16;;;;;;;58.92;17.30;;;15.80;57.50;;;;;;3926626;30;20055;-70
2023/03/02 06:07:56;;;;;;;58.33;17.52;;;15.80;57.60;;;;;;3929336;30;20216;-70
2023/03/02 06:10:37;;;;;;;44.92;16.42;;;15.80;57.80;;;;;;3917109;30;20141;-70
2023/03/02 06:13:18;;;;;;;61.13;17.98;;;15.80;57.70;;;;;;3914276;30;20583;-69
2023/03/02 06:16:01;;;;;;;54.53;17.20;;;15.70;58.00;;;;;;3914342;30;20063;-69
2023/03/02 06:18:42;;;;;;;49.20;16.67;;;15.60;58.40;;;;;;3914426;30;20064;-69
2023/03/02 06:21:23;;;;;;;42.35;17.20;;;15.80;58.40;;;;;;3914213;30;20119;-70
2023/03/02 06:24:04;;;;;;;54.97;18.83;;;15.80;58.40;;;;;;3919916;30;20059;-69
2023/03/02 06:26:45;;;;;;;50.28;19.55;;;15.80;58.20;;;;;;3906647;30;20063;-69
2023/03/02 06:29:26;;;;;;;56.93;20.73;;;15.80;58.30;;;;;;3914378;30;20113;-69
2023/03/02 06:32:09;;;;;;;78.18;19.08;;;15.80;59.00;;;;;;3914536;30;20195;-69
2023/03/02 06:34:50;;;;;;;78.80;19.75;;;15.80;57.50;;;;;;3918334;30;20515;-69
2023/03/02 06:37:32;;;;;;;54.20;19.77;;;15.80;58.00;;;;;;3921586;30;20071;-69
2023/03/02 06:40:13;;;;;;;;;;;15.70;58.00;;;;;;3924486;30;20055;-69
2023/03/02 06:42:54;;;;;;;64.63;18.35;;;15.60;58.60;;;;;;3920222;30;20023;-69
2023/03/02 06:45:36;;;;;;;45.20;15.43;;;15.70;59.00;;;;;;3913924;30;20467;-69
2023/03/02 06:48:18;;;;;;;38.00;16.27;;;15.70;58.90;;;;;;3914148;30;20200;-69
2023/03/02 06:50:59;;;;;;;47.75;16.17;;;15.70;59.00;;;;;;3913919;30;20059;-71
2023/03/02 06:53:40;;;;;;;47.00;14.35;;;15.80;59.00;;;;;;3921869;30;20059;-70
2023/03/02 06:56:21;;;;;;;39.42;12.93;;;15.80;58.00;;;;;;3902752;30;20567;-68
2023/03/02 06:59:02;;;;;;;30.10;12.45;;;15.80;56.10;;;;;;3903437;30;20059;-69
2023/03/02 07:01:43;;;;;;;19.67;12.40;;;15.80;57.30;;;;;;3897630;30;20089;-68
2023/03/02 07:04:27;;;;;;;35.93;13.93;;;15.70;57.50;;;;;;3922943;30;20297;-68
2023/03/02 07:07:08;;;;;;;50.33;12.55;;;15.80;58.20;;;;;;3924244;30;20453;-66
2023/03/02 07:09:49;;;;;;;35.55;13.25;;;15.90;57.50;;;;;;3916036;30;20060;-66
2023/03/02 07:12:30;;;;;;;37.03;12.10;;;15.90;57.90;;;;;;3927378;30;20519;-66
2023/03/02 07:15:13;;;;;;;33.03;13.60;;;15.90;57.10;;;;;;3927000;30;20515;-66
2023/03/02 07:17:53;;;;;;;35.35;13.00;;;15.90;57.10;;;;;;3927704;30;20079;-66
2023/03/02 07:20:37;;;;;;;46.20;13.97;;;15.80;58.00;;;;;;3927662;30;20067;-66
2023/03/02 07:23:18;;;;;;;42.95;13.27;;;15.80;57.80;;;;;;3927927;30;20851;-66
2023/03/02 07:25:59;;;;;;;52.20;14.02;;;15.70;58.20;;;;;;3924878;30;20055;-66
2023/03/02 07:28:42;;;;;;;23.20;12.57;;;15.70;58.70;;;;;;3926927;30;20541;-66
2023/03/02 07:31:22;;;;;;;31.00;12.25;;;15.70;59.10;;;;;;3927485;30;20063;-66
2023/03/02 07:34:04;;;;;;;19.38;12.65;;;15.60;58.80;;;;;;3927466;30;20104;-68
2023/03/02 07:36:46;;;;;;;25.80;12.20;;;15.60;58.40;;;;;;3927754;30;20133;-67
2023/03/02 07:39:27;;;;;;;29.42;13.18;;;15.60;58.50;;;;;;3927969;30;20570;-66
2023/03/02 07:42:10;;;;;;;27.85;13.48;;;15.80;58.80;;;;;;3925417;30;20072;-66
2023/03/02 07:44:54;;;;;;;17.92;11.70;;;15.80;58.80;;;;;;3904215;30;20610;-66
2023/03/02 07:47:37;;;;;;;16.67;12.32;;;15.80;58.20;;;;;;3921200;30;20062;-66
2023/03/02 07:50:18;;;;;;;19.38;13.05;;;15.80;58.10;;;;;;3927577;30;20078;-66
2023/03/02 07:53:00;;;;;;;24.75;11.65;;;15.80;57.10;;;;;;3923315;30;20616;-66
2023/03/02 07:55:42;;;;;;;23.65;12.70;;;15.80;57.40;;;;;;3913041;30;20075;-66
2023/03/02 07:58:23;;;;;;;27.83;13.07;;;15.80;57.40;;;;;;3913280;30;20059;-66
2023/03/02 08:01:04;;;;;;;21.75;11.30;;;15.80;57.30;;;;;;3902989;30;20056;-66
2023/03/02 08:03:45;;;;;;;22.58;12.32;;;15.80;57.50;;;;;;3912996;30;20052;-66
2023/03/02 08:06:26;;;;;;;17.90;12.60;;;15.80;57.70;;;;;;3912958;30;20102;-66
2023/03/02 08:09:08;;;;;;;29.73;12.60;;;15.80;57.40;;;;;;3902099;30;20055;-67
2023/03/02 08:11:49;;;;;;;29.33;12.57;;;15.70;57.40;;;;;;3913074;30;20068;-66
2023/03/02 08:14:30;;;;;;;45.92;14.27;;;15.60;57.10;;;;;;3912917;30;20529;-67
2023/03/02 08:17:11;;;;;;;48.70;14.30;;;15.50;57.10;;;;;;3911845;30;20479;-67
2023/03/02 08:19:52;;;;;;;42.10;13.40;;;15.50;57.40;;;;;;3916183;30;20067;-67
2023/03/02 08:22:33;;;;;;;26.30;13.37;;;15.50;57.80;;;;;;3914864;30;20062;-68
2023/03/02 08:25:15;;;;;;;19.77;13.05;;;15.60;57.50;;;;;;3927480;30;20305;-68
2023/03/02 08:27:56;;;;;;;15.57;11.98;;;15.60;57.30;;;;;;3917057;30;20102;-68
2023/03/02 08:30:40;;;;;;;24.30;12.88;;;15.70;57.60;;;;;;3927041;30;20055;-68
2023/03/02 08:33:21;;;;;;;26.27;13.15;;;15.80;57.70;;;;;;3927329;30;20515;-68
2023/03/02 08:36:04;;;;;;;16.67;12.07;;;15.80;57.10;;;;;;3927258;30;20063;-70
2023/03/02 08:38:46;;;;;;;20.70;12.60;;;15.80;56.60;;;;;;3926666;30;20051;-70
2023/03/02 08:41:29;;;;;;;22.70;13.00;;;15.80;57.10;;;;;;3926980;30;20413;-71
2023/03/02 08:44:10;;;;;;;18.55;13.45;;;15.70;57.80;;;;;;3917665;30;20055;-72
2023/03/02 08:46:51;;;;;;;18.10;12.98;;;15.70;58.30;;;;;;3912495;30;20068;-68
2023/03/02 08:49:32;;;;;;;15.32;12.55;;;15.70;58.50;;;;;;3918236;30;20587;-68
2023/03/02 08:52:14;;;;;;;15.20;12.07;;;15.60;58.50;;;;;;3927412;30;20059;-68
2023/03/02 08:54:55;;;;;;;;;;;15.60;57.80;;;;;;3927392;30;20905;-69
2023/03/02 08:57:37;;;;;;;23.50;11.50;;;15.50;58.10;;;;;;3926821;30;19933;-68
2023/03/02 09:00:19;;;;;;;17.17;11.07;;;15.40;58.00;;;;;;3912210;30;20092;-69
2023/03/02 09:03:01;;;;;;;;;;;15.30;57.50;;;;;;3909509;30;20060;-69
2023/03/02 09:05:42;;;;;;;13.23;10.45;;;15.30;58.70;;;;;;3911701;30;19947;-67
2023/03/02 09:08:24;;;;;;;17.07;11.10;;;15.40;59.30;;;;;;3911015;30;20056;-66
2023/03/02 09:11:05;;;;;;;18.88;11.02;;;15.40;58.30;;;;;;3918860;30;20062;-66
2023/03/02 09:13:50;;;;;;;13.50;10.23;;;15.40;58.50;;;;;;3919096;30;20067;-67
2023/03/02 09:16:31;;;;;;;12.05;10.10;;;15.50;58.60;;;;;;3913783;30;20503;-66
2023/03/02 09:19:13;;;;;;;12.73;10.30;;;15.40;58.60;;;;;;3925335;30;20063;-68
2023/03/02 09:21:54;;;;;;;;;;;15.40;59.00;;;;;;3915720;30;20071;-68
2023/03/02 09:24:35;;;;;;;15.50;10.40;;;15.30;59.00;;;;;;3925895;30;20064;-67
2023/03/02 09:27:16;;;;;;;16.27;11.27;;;15.20;59.20;;;;;;3925602;30;20508;-65
2023/03/02 09:29:59;;;;;;;12.25;10.13;;;15.10;58.90;;;;;;3925807;30;20067;-65
2023/03/02 09:32:39;;;;;;;12.80;10.10;;;15.10;59.10;;;;;;3918535;30;20109;-68
2023/03/02 09:35:21;;;;;;;14.63;10.43;;;15.20;59.30;;;;;;3925730;30;20063;-63
2023/03/02 09:38:02;;;;;;;11.77;8.63;;;15.20;58.10;;;;;;3914738;30;20063;-66
2023/03/02 09:41:03;;;;;;;16.47;9.67;;;15.20;58.30;;;;;;3914611;30;20057;-67
2023/03/02 09:43:48;;;;;;;;;;;15.20;58.40;;;;;;3926221;30;20065;-66
2023/03/02 09:46:37;;;;;;;14.52;10.50;;;15.20;58.50;;;;;;3925843;30;20426;-67
2023/03/02 09:49:28;;;;;;;11.52;9.38;;;15.10;58.50;;;;;;3916111;30;20067;-67
2023/03/02 09:52:30;;;;;;;13.67;10.93;;;15.10;58.10;;;;;;3924488;30;20091;-64
2023/03/02 09:55:15;;;;;;;15.05;11.57;;;15.10;57.50;;;;;;3926698;30;20064;-64
2023/03/02 09:57:56;;;;;;;15.15;11.60;;;15.10;57.50;;;;;;3928608;30;20105;-64
2023/03/02 10:00:41;;;;;;;16.38;12.20;;;15.10;58.00;;;;;;3922837;30;20067;-65
2023/03/02 10:03:27;;;;;;;15.10;11.60;;;15.10;57.30;;;;;;3928579;30;20056;-65
2023/03/02 10:06:12;;;;;;;14.98;12.07;;;15.10;57.70;;;;;;3913988;30;20063;-65
2023/03/02 10:08:52;;;;;;;;;;;15.10;58.40;;;;;;3914494;30;20067;-64
2023/03/02 10:11:46;;;;;;;15.57;12.27;;;15.20;59.10;;;;;;3914172;30;20069;-64
2023/03/02 10:14:33;;;;;;;16.77;11.85;;;15.30;59.20;;;;;;3913491;30;20063;-64
2023/03/02 10:17:32;;;;;;;14.55;12.02;;;15.30;58.20;;;;;;3913824;30;20452;-66
2023/03/02 10:20:22;;;;;;;15.90;10.65;;;15.40;58.00;;;;;;3902272;30;20052;-64
2023/03/02 10:23:19;;;;;;;15.73;12.05;;;15.60;57.90;;;;;;3913776;30;20071;-64
2023/03/02 10:26:06;;;;;;;14.88;11.95;;;15.60;56.80;;;;;;3913039;30;20059;-66
2023/03/02 10:28:50;;;;;;;15.93;12.18;;;15.70;57.70;;;;;;3913431;30;20063;-66
2023/03/02 10:31:33;;;;;;;16.42;11.45;;;15.70;57.10;;;;;;3913133;30;20059;-65
2023/03/02 10:34:14;;;;;;;16.55;12.75;;;15.70;57.60;;;;;;3926066;30;20078;-64
2023/03/02 10:36:58;;;;;;;16.13;11.30;;;15.80;58.00;;;;;;3918467;30;20055;-63
2023/03/02 10:39:39;;;;;;;16.05;12.18;;;15.70;57.60;;;;;;3925283;30;20063;-64
2023/03/02 10:42:24;;;;;;;19.40;13.45;;;15.80;57.80;;;;;;3927514;30;20063;-64
2023/03/02 10:45:18;;;;;;;16.92;12.10;;;15.80;57.70;;;;;;3931548;30;20745;-64
2023/03/02 10:48:00;;;;;;;18.92;13.00;;;15.80;56.50;;;;;;3932449;30;20062;-64
2023/03/02 10:50:43;;;;;;;17.70;13.02;;;15.80;57.30;;;;;;3927097;30;20063;-64
2023/03/02 10:53:25;;;;;;;17.98;12.57;;;15.80;57.00;;;;;;3936554;30;20063;-64
2023/03/02 10:56:06;;;;;;;24.42;14.82;;;15.70;57.40;;;;;;3935479;30;20063;-64
2023/03/02 10:58:47;;;;;;;22.17;13.13;;;15.70;56.60;;;;;;3921486;30;20054;-65
2023/03/02 11:01:29;;;;;;;22.95;14.52;;;15.60;57.30;;;;;;3932506;30;20412;-66
2023/03/02 11:04:14;;;;;;;20.05;13.55;;;15.70;57.30;;;;;;3924266;30;20118;-65
2023/03/02 11:06:56;;;;;;;20.10;13.35;;;15.70;56.90;;;;;;3925224;30;20083;-63
2023/03/02 11:09:38;;;;;;;24.58;15.73;;;15.80;57.10;;;;;;3924139;30;20140;-63
2023/03/02 11:12:19;;;;;;;27.15;17.38;;;15.80;57.40;;;;;;3928403;30;20080;-65
2023/03/02 11:15:17;;;;;;;32.10;18.92;;;15.90;57.50;;;;;;3930038;30;20067;-64
2023/03/02 11:18:04;;;;;;;50.50;25.08;;;15.80;57.50;;;;;;3924908;30;20075;-65
2023/03/02 11:20:49;;;;;;;50.75;25.95;;;15.80;57.10;;;;;;3936442;30;20153;-64
2023/03/02 11:23:52;;;;;;;42.88;24.38;;;15.70;57.40;;;;;;3925131;30;20070;-64
2023/03/02 11:26:38;;;;;;;46.53;24.35;;;15.70;57.70;;;;;;3924888;30;20055;-64
2023/03/02 11:29:31;;;;;;;44.85;25.20;;;15.70;57.40;;;;;;3925026;30;20524;-64
2023/03/02 11:32:18;;;;;;;38.83;23.23;;;15.70;58.00;;;;;;3926556;30;20152;-64
2023/03/02 11:35:04;;;;;;;42.20;24.58;;;15.60;57.60;;;;;;3911069;30;20133;-66
2023/03/02 11:37:49;;;;;;;39.55;23.13;;;15.60;56.90;;;;;;3923189;30;20112;-66
2023/03/02 11:40:33;;;;;;;39.25;22.63;;;15.50;56.70;;;;;;3934332;30;20137;-66
2023/03/02 11:43:15;;;;;;;45.35;24.00;;;15.50;57.20;;;;;;3937873;30;20063;-64
2023/03/02 11:45:59;;;;;;;38.72;23.48;;;15.50;57.40;;;;;;3925186;30;20563;-64
2023/03/02 11:48:43;;;;;;;33.00;20.90;;;15.50;56.90;;;;;;3932401;30;20058;-65
2023/03/02 11:51:26;;;;;;;31.00;19.00;;;15.50;56.90;;;;;;3937127;30;20058;-65
2023/03/02 11:54:19;;;;;;;28.35;19.42;;;15.40;57.10;;;;;;3931887;30;20575;-65
2023/03/02 11:57:01;;;;;;;23.67;15.40;;;15.40;56.60;;;;;;3936941;30;20108;-66
2023/03/02 11:59:43;;;;;;;18.90;13.55;;;15.30;56.90;;;;;;3939465;30;20523;-64
2023/03/02 12:02:25;;;;;;;16.67;12.60;;;15.20;57.50;;;;;;3936817;30;20086;-63
2023/03/02 12:05:22;;;;;;;17.33;11.85;;;15.10;57.40;;;;;;3914799;30;20145;-65
2023/03/02 12:08:04;;;;;;;15.32;12.18;;;15.00;58.00;;;;;;3936293;30;20066;-65
2023/03/02 12:10:58;;;;;;;15.52;12.73;;;14.90;58.00;;;;;;3920555;30;20070;-65
2023/03/02 12:13:40;;;;;;;16.98;12.90;;;14.80;56.70;;;;;;3935927;30;20059;-65
2023/03/02 12:16:34;;;;;;;13.77;10.63;;;14.80;57.90;;;;;;3926611;30;20064;-65
2023/03/02 12:19:27;;;;;;;13.88;10.98;;;14.70;58.20;;;;;;3924911;30;20074;-67
2023/03/02 12:22:09;;;;;;;14.38;11.40;;;14.70;58.50;;;;;;3922117;30;20059;-65
2023/03/02 12:25:01;;;;;;;14.55;11.48;;;14.70;58.40;;;;;;3913865;30;20067;-64
2023/03/02 12:27:42;;;;;;;12.88;10.38;;;14.80;58.80;;;;;;3918488;30;20054;-64
2023/03/02 12:30:29;;;;;;;12.95;9.25;;;14.80;58.80;;;;;;3925018;30;20071;-64
2023/03/02 12:33:29;;;;;;;11.07;9.15;;;14.80;58.80;;;;;;3937024;30;20054;-66
2023/03/02 12:36:17;;;;;;;11.57;8.98;;;14.80;58.60;;;;;;3929119;30;20512;-66
2023/03/02 12:39:14;;;;;;;11.82;9.25;;;14.80;59.10;;;;;;3926708;30;20059;-67
2023/03/02 12:42:18;;;;;;;11.30;8.90;;;14.70;59.10;;;;;;3936277;30;20059;-65
2023/03/02 12:45:04;;;;;;;9.95;8.80;;;14.70;58.80;;;;;;3923750;30;20153;-65
2023/03/02 12:47:49;;;;;;;9.88;8.43;;;14.80;59.10;;;;;;3931062;30;20067;-65
2023/03/02 12:50:33;;;;;;;9.55;8.00;;;14.90;59.50;;;;;;3914891;30;20105;-67
2023/03/02 12:53:18;;;;;;;11.52;8.60;;;15.00;59.90;;;;;;3903399;30;20063;-66
2023/03/02 12:55:59;;;;;;;11.25;10.07;;;15.10;61.00;;;;;;3926807;30;20075;-66
2023/03/02 12:58:40;;;;;;;;;;;15.10;60.30;;;;;;3926258;30;20408;-67
2023/03/02 13:01:24;;;;;;;10.70;9.30;;;15.10;61.00;;;;;;3932978;30;20366;-66
2023/03/02 13:04:05;;;;;;;10.38;8.57;;;15.10;61.60;;;;;;3921531;30;20059;-63
2023/03/02 13:06:47;;;;;;;10.65;8.65;;;15.10;61.40;;;;;;3925054;30;20209;-64
2023/03/02 13:09:29;;;;;;;11.20;9.07;;;15.20;61.00;;;;;;3934856;30;20089;-64
2023/03/02 13:12:13;;;;;;;12.68;9.38;;;15.20;61.40;;;;;;3916922;30;20196;-64
2023/03/02 13:14:56;;;;;;;11.00;9.23;;;15.20;60.60;;;;;;3929649;30;20507;-64
2023/03/02 13:17:37;;;;;;;11.68;9.30;;;15.20;60.80;;;;;;3928368;30;20051;-64
2023/03/02 13:20:20;;;;;;;10.95;9.40;;;15.20;60.20;;;;;;3923481;30;20396;-64
2023/03/02 13:23:03;;;;;;;12.52;10.38;;;15.20;60.60;;;;;;3932660;30;20086;-64
2023/03/02 13:25:49;;;;;;;12.05;10.85;;;15.10;60.20;;;;;;3926315;30;20148;-63
2023/03/02 13:28:32;;;;;;;12.43;10.57;;;15.10;59.30;;;;;;3926725;30;20072;-65
2023/03/02 13:31:19;;;;;;;14.27;11.57;;;15.00;58.70;;;;;;3927188;30;20055;-63
2023/03/02 13:34:00;;;;;;;14.38;12.50;;;15.00;58.30;;;;;;3930491;30;20442;-63
2023/03/02 13:36:42;;;;;;;15.48;13.00;;;14.90;57.70;;;;;;3922593;30;20097;-64
2023/03/02 13:39:27;;;;;;;16.67;13.10;;;14.80;57.90;;;;;;3927089;30;20051;-64
2023/03/02 13:42:26;;;;;;;17.52;13.57;;;14.70;57.60;;;;;;3928947;30;20408;-65
2023/03/02 13:45:22;;;;;;;13.15;11.52;;;14.70;59.30;;;;;;3916101;30;20531;-65
2023/03/02 13:48:14;;;;;;;14.90;11.27;;;14.60;60.50;;;;;;3927141;30;20077;-65
2023/03/02 13:50:58;;;;;;;12.38;10.52;;;14.60;58.70;;;;;;3932521;30;20071;-64
2023/03/02 13:53:40;;;;;;;16.45;12.63;;;14.60;59.30;;;;;;3932773;30;20479;-65
2023/03/02 13:56:26;;;;;;;19.42;15.52;;;14.50;58.70;;;;;;3926686;30;20189;-67